createdAt,value
2019-05-15T00:00:38.734Z,6.30
2019-05-15T00:01:40.948Z,6.39
2019-05-15T00:02:38.821Z,6.38
2019-05-15T00:03:39.063Z,6.33
2019-05-15T00:04:38.334Z,6.38
2019-05-15T00:05:39.083Z,6.36
2019-05-15T00:06:39.103Z,6.38
2019-05-15T00:07:39.315Z,6.39
2019-05-15T00:08:38.657Z,6.30
2019-05-15T00:09:41.792Z,6.38
2019-05-15T00:10:38.920Z,6.33
2019-05-15T00:11:38.966Z,6.31
2019-05-15T00:12:39.587Z,6.30
2019-05-15T00:13:39.005Z,6.38
2019-05-15T00:14:38.818Z,6.31
2019-05-15T00:15:40.182Z,6.31
2019-05-15T00:16:38.668Z,6.36
2019-05-15T00:17:39.347Z,6.36
2019-05-15T00:18:38.985Z,6.35
2019-05-15T00:19:38.948Z,6.36
2019-05-15T00:20:39.339Z,6.33
2019-05-15T00:21:38.386Z,6.38
2019-05-15T00:22:38.794Z,6.36
2019-05-15T00:23:38.767Z,6.31
2019-05-15T00:24:38.168Z,6.36
2019-05-15T00:25:39.465Z,6.33
2019-05-15T00:26:38.496Z,6.30
2019-05-15T00:27:38.595Z,6.33
2019-05-15T00:28:38.836Z,6.26
2019-05-15T00:29:38.326Z,6.22
2019-05-15T00:30:38.769Z,6.20
2019-05-15T00:31:38.770Z,6.16
2019-05-15T00:32:39.287Z,6.16
2019-05-15T00:33:39.459Z,6.22
2019-05-15T00:34:37.982Z,6.27
2019-05-15T00:35:39.326Z,6.17
2019-05-15T00:36:38.261Z,6.20
2019-05-15T00:37:38.725Z,6.22
2019-05-15T00:38:39.106Z,6.26
2019-05-15T00:39:39.035Z,6.16
2019-05-15T00:40:39.179Z,6.16
2019-05-15T00:41:50.509Z,6.17
2019-05-15T00:42:38.737Z,6.17
2019-05-15T00:43:38.663Z,6.20
2019-05-15T00:44:38.740Z,6.19
2019-05-15T00:45:38.521Z,6.16
2019-05-15T00:46:38.413Z,6.22
2019-05-15T00:47:39.633Z,6.20
2019-05-15T00:48:39.770Z,6.20
2019-05-15T00:49:38.248Z,6.22
2019-05-15T00:50:39.309Z,6.22
2019-05-15T00:51:39.005Z,6.14
2019-05-15T00:52:39.047Z,6.20
2019-05-15T00:53:38.992Z,6.20
2019-05-15T00:54:38.866Z,6.19
2019-05-15T00:55:37.959Z,6.16
2019-05-15T00:56:39.148Z,6.26
2019-05-15T00:57:39.185Z,6.14
2019-05-15T00:58:39.969Z,6.24
2019-05-15T00:59:38.956Z,6.19
2019-05-15T01:00:38.161Z,6.12
2019-05-15T01:01:38.202Z,6.19
2019-05-15T01:02:38.806Z,6.30
2019-05-15T01:03:38.814Z,6.11
2019-05-15T01:04:38.884Z,6.30
2019-05-15T01:05:38.718Z,6.22
2019-05-15T01:06:38.935Z,6.22
2019-05-15T01:07:39.188Z,6.22
2019-05-15T01:08:39.333Z,6.14
2019-05-15T01:09:38.537Z,6.20
2019-05-15T01:10:38.603Z,6.14
2019-05-15T01:11:38.173Z,6.20
2019-05-15T01:12:38.010Z,6.17
2019-05-15T01:13:38.897Z,6.20
2019-05-15T01:14:38.547Z,6.28
2019-05-15T01:15:38.709Z,6.27
2019-05-15T01:16:38.335Z,6.36
2019-05-15T01:17:39.122Z,6.28
2019-05-15T01:18:38.518Z,6.31
2019-05-15T01:19:37.960Z,6.33
2019-05-15T01:20:39.172Z,6.38
2019-05-15T01:21:38.529Z,6.30
2019-05-15T01:22:39.339Z,6.30
2019-05-15T01:23:39.006Z,6.35
2019-05-15T01:24:38.987Z,6.30
2019-05-15T01:25:39.047Z,6.42
2019-05-15T01:26:38.511Z,6.33
2019-05-15T01:27:38.567Z,6.39
2019-05-15T01:28:38.466Z,6.31
2019-05-15T01:29:44.003Z,6.31
2019-05-15T01:30:39.342Z,6.36
2019-05-15T01:31:38.023Z,6.35
2019-05-15T01:32:39.329Z,6.35
2019-05-15T01:33:39.214Z,6.39
2019-05-15T01:34:38.421Z,6.41
2019-05-15T01:35:38.302Z,6.42
2019-05-15T01:36:38.231Z,6.42
2019-05-15T01:37:39.162Z,6.39
2019-05-15T01:38:38.947Z,6.36
2019-05-15T01:39:38.478Z,6.36
2019-05-15T01:40:38.485Z,6.38
2019-05-15T01:41:38.679Z,6.39
2019-05-15T01:42:38.680Z,6.38
2019-05-15T01:43:38.123Z,6.33
2019-05-15T01:44:38.895Z,6.36
2019-05-15T01:45:39.078Z,6.30
2019-05-15T01:46:39.337Z,6.28
2019-05-15T01:47:38.837Z,6.27
2019-05-15T01:48:38.730Z,6.30
2019-05-15T01:49:38.375Z,6.28
2019-05-15T01:50:38.858Z,6.27
2019-05-15T01:51:38.494Z,6.16
2019-05-15T01:52:39.027Z,6.16
2019-05-15T01:53:38.541Z,6.26
2019-05-15T01:54:38.321Z,6.19
2019-05-15T01:55:39.126Z,6.28
2019-05-15T01:56:38.672Z,6.12
2019-05-15T01:57:38.408Z,6.14
2019-05-15T01:58:38.161Z,6.19
2019-05-15T01:59:38.896Z,6.27
2019-05-15T02:00:38.871Z,6.12
2019-05-15T02:01:39.079Z,6.22
2019-05-15T02:02:38.929Z,6.20
2019-05-15T02:03:38.613Z,6.19
2019-05-15T02:04:39.178Z,6.07
2019-05-15T02:05:38.820Z,6.17
2019-05-15T02:06:38.920Z,6.22
2019-05-15T02:07:38.736Z,6.22
2019-05-15T02:08:39.021Z,6.20
2019-05-15T02:09:38.529Z,6.07
2019-05-15T02:10:39.284Z,6.07
2019-05-15T02:11:38.244Z,6.16
2019-05-15T02:12:38.742Z,6.14
2019-05-15T02:13:38.722Z,6.14
2019-05-15T02:14:39.019Z,6.14
2019-05-15T02:15:39.114Z,6.16
2019-05-15T02:16:39.119Z,6.02
2019-05-15T02:17:38.915Z,6.09
2019-05-15T02:18:38.867Z,6.04
2019-05-15T02:19:36.514Z,6.12
2019-05-15T02:20:38.782Z,6.07
2019-05-15T02:21:38.026Z,6.02
2019-05-15T02:22:42.014Z,6.05
2019-05-15T02:23:38.821Z,6.02
2019-05-15T02:24:38.859Z,6.09
2019-05-15T02:25:38.640Z,6.01
2019-05-15T02:26:38.681Z,6.12
2019-05-15T02:27:38.946Z,6.11
2019-05-15T02:28:38.412Z,6.08
2019-05-15T02:29:37.808Z,6.14
2019-05-15T02:30:39.664Z,6.07
2019-05-15T02:31:39.142Z,6.08
2019-05-15T02:32:39.544Z,6.09
2019-05-15T02:33:39.537Z,6.09
2019-05-15T02:34:39.212Z,6.07
2019-05-15T02:35:38.866Z,6.05
2019-05-15T02:36:39.735Z,6.07
2019-05-15T02:37:40.347Z,6.02
2019-05-15T02:38:40.394Z,6.05
2019-05-15T02:39:38.938Z,6.08
2019-05-15T02:40:36.260Z,6.08
2019-05-15T02:41:39.396Z,6.05
2019-05-15T02:42:39.522Z,6.05
2019-05-15T02:43:38.759Z,6.05
2019-05-15T02:44:39.310Z,6.05
2019-05-15T02:45:40.803Z,6.02
2019-05-15T02:46:39.231Z,6.07
2019-05-15T02:47:39.093Z,6.01
2019-05-15T02:48:36.169Z,5.99
2019-05-15T02:49:39.378Z,5.94
2019-05-15T02:50:39.038Z,6.04
2019-05-15T02:51:36.148Z,6.02
2019-05-15T02:52:38.846Z,5.91
2019-05-15T02:53:39.233Z,5.94
2019-05-15T02:54:36.105Z,5.90
2019-05-15T02:55:36.107Z,5.91
2019-05-15T02:56:38.970Z,5.87
2019-05-15T02:57:39.163Z,5.80
2019-05-15T02:58:36.076Z,5.76
2019-05-15T02:59:39.326Z,5.80
2019-05-15T03:00:47.012Z,5.75
2019-05-15T03:01:40.464Z,5.76
2019-05-15T03:02:36.025Z,5.83
2019-05-15T03:03:38.389Z,5.79
2019-05-15T03:04:36.013Z,5.84
2019-05-15T03:05:35.990Z,5.84
2019-05-15T03:06:38.647Z,5.90
2019-05-15T03:07:35.965Z,5.87
2019-05-15T03:08:35.955Z,5.87
2019-05-15T03:09:35.950Z,5.83
2019-05-15T03:10:35.938Z,5.71
2019-05-15T03:11:35.964Z,5.83
2019-05-15T03:12:35.914Z,5.79
2019-05-15T03:13:38.955Z,5.73
2019-05-15T03:14:35.899Z,5.69
2019-05-15T03:15:39.737Z,5.69
2019-05-15T03:16:39.115Z,5.69
2019-05-15T03:17:39.750Z,5.79
2019-05-15T03:18:35.891Z,5.79
2019-05-15T03:19:39.009Z,5.72
2019-05-15T03:20:38.634Z,5.76
2019-05-15T03:21:38.665Z,5.72
2019-05-15T03:22:35.801Z,5.82
2019-05-15T03:23:35.790Z,5.75
2019-05-15T03:24:35.780Z,5.75
2019-05-15T03:25:35.780Z,5.79
2019-05-15T03:26:39.176Z,5.75
2019-05-15T03:27:39.165Z,5.68
2019-05-15T03:28:38.776Z,5.65
2019-05-15T03:29:35.721Z,5.71
2019-05-15T03:31:06.438Z,5.72
2019-05-15T03:31:53.434Z,5.72
2019-05-15T03:32:46.799Z,5.69
2019-05-15T03:33:43.908Z,5.72
2019-05-15T03:34:44.514Z,5.73
2019-05-15T03:35:41.964Z,5.65
2019-05-15T03:36:36.656Z,5.69
2019-05-15T03:37:35.671Z,5.64
2019-05-15T03:38:39.108Z,5.73
2019-05-15T03:39:35.618Z,5.66
2019-05-15T03:40:35.619Z,5.56
2019-05-15T03:41:35.593Z,5.66
2019-05-15T03:42:35.587Z,5.65
2019-05-15T03:43:39.109Z,5.73
2019-05-15T03:44:35.629Z,5.69
2019-05-15T03:45:35.567Z,5.75
2019-05-15T03:46:35.537Z,5.69
2019-05-15T03:47:35.570Z,5.71
2019-05-15T03:48:35.537Z,5.71
2019-05-15T03:49:35.551Z,5.79
2019-05-15T03:50:35.516Z,5.72
2019-05-15T03:51:35.482Z,5.80
2019-05-15T03:52:35.474Z,5.73
2019-05-15T03:53:35.473Z,5.72
2019-05-15T03:54:38.968Z,5.73
2019-05-15T03:55:35.467Z,5.79
2019-05-15T03:56:39.028Z,5.73
2019-05-15T03:57:35.415Z,5.76
2019-05-15T03:58:35.408Z,5.89
2019-05-15T03:59:35.398Z,5.90
2019-05-15T04:00:35.391Z,5.89
2019-05-15T04:01:39.838Z,5.91
2019-05-15T04:02:39.008Z,5.86
2019-05-15T04:03:38.815Z,5.86
2019-05-15T04:04:35.353Z,5.84
2019-05-15T04:05:38.632Z,5.86
2019-05-15T04:06:35.338Z,5.83
2019-05-15T04:07:35.314Z,5.91
2019-05-15T04:08:38.889Z,5.83
2019-05-15T04:09:38.473Z,5.82
2019-05-15T04:10:35.296Z,5.93
2019-05-15T04:11:38.540Z,5.84
2019-05-15T04:12:35.273Z,5.86
2019-05-15T04:13:35.250Z,5.90
2019-05-15T04:14:35.365Z,5.89
2019-05-15T04:15:35.230Z,5.83
2019-05-15T04:16:35.235Z,5.79
2019-05-15T04:17:35.216Z,5.83
2019-05-15T04:18:35.187Z,5.83
2019-05-15T04:19:35.185Z,5.79
2019-05-15T04:20:35.233Z,5.73
2019-05-15T04:21:35.179Z,5.75
2019-05-15T04:22:35.174Z,5.79
2019-05-15T04:23:35.198Z,5.73
2019-05-15T04:24:35.137Z,5.79
2019-05-15T04:25:35.122Z,5.82
2019-05-15T04:26:35.144Z,5.72
2019-05-15T04:27:35.135Z,5.73
2019-05-15T04:28:35.083Z,5.73
2019-05-15T04:29:35.093Z,5.84
2019-05-15T04:30:35.118Z,5.79
2019-05-15T04:31:50.202Z,5.87
2019-05-15T04:32:39.511Z,5.87
2019-05-15T04:33:35.028Z,5.91
2019-05-15T04:34:35.017Z,5.86
2019-05-15T04:35:35.004Z,5.82
2019-05-15T04:36:35.011Z,5.91
2019-05-15T04:37:34.981Z,5.91
2019-05-15T04:38:34.974Z,5.98
2019-05-15T04:39:34.964Z,5.98
2019-05-15T04:40:34.947Z,5.97
2019-05-15T04:41:34.980Z,5.93
2019-05-15T04:42:34.927Z,6.07
2019-05-15T04:43:43.742Z,6.04
2019-05-15T04:44:39.231Z,6.01
2019-05-15T04:45:35.584Z,6.07
2019-05-15T04:46:34.901Z,6.07
2019-05-15T04:47:34.871Z,6.11
2019-05-15T04:48:34.860Z,6.07
2019-05-15T04:49:34.850Z,6.04
2019-05-15T04:50:34.931Z,6.04
2019-05-15T04:51:34.840Z,6.05
2019-05-15T04:52:34.830Z,5.98
2019-05-15T04:53:34.809Z,6.08
2019-05-15T04:54:34.818Z,6.07
2019-05-15T04:55:34.788Z,6.04
2019-05-15T04:56:34.786Z,6.11
2019-05-15T04:57:34.798Z,6.09
2019-05-15T04:58:34.757Z,6.14
2019-05-15T04:59:34.788Z,6.08
2019-05-15T05:00:34.807Z,6.02
2019-05-15T05:01:34.730Z,6.14
2019-05-15T05:02:34.714Z,6.17
2019-05-15T05:03:35.028Z,6.12
2019-05-15T05:04:34.688Z,6.22
2019-05-15T05:05:34.679Z,6.26
2019-05-15T05:06:34.786Z,6.26
2019-05-15T05:07:34.743Z,6.26
2019-05-15T05:08:34.648Z,6.20
2019-05-15T05:09:34.635Z,6.24
2019-05-15T05:10:34.620Z,6.30
2019-05-15T05:11:34.642Z,6.36
2019-05-15T05:12:34.615Z,6.33
2019-05-15T05:13:34.607Z,6.35
2019-05-15T05:14:34.575Z,6.39
2019-05-15T05:15:34.566Z,6.33
2019-05-15T05:16:34.556Z,6.35
2019-05-15T05:17:34.592Z,6.35
2019-05-15T05:18:34.533Z,6.41
2019-05-15T05:19:34.522Z,6.39
2019-05-15T05:20:34.510Z,6.30
2019-05-15T05:21:34.499Z,6.31
2019-05-15T05:22:34.526Z,6.35
2019-05-15T05:23:34.482Z,6.27
2019-05-15T05:24:34.468Z,6.35
2019-05-15T05:25:34.454Z,6.35
2019-05-15T05:26:34.444Z,6.42
2019-05-15T05:27:34.455Z,6.41
2019-05-15T05:28:34.422Z,6.42
2019-05-15T05:29:34.413Z,6.33
2019-05-15T05:30:34.427Z,6.42
2019-05-15T05:31:34.388Z,6.51
2019-05-15T05:32:35.156Z,6.46
2019-05-15T05:33:34.372Z,6.42
2019-05-15T05:34:34.358Z,6.45
2019-05-15T05:35:34.347Z,6.51
2019-05-15T05:36:34.338Z,6.60
2019-05-15T05:37:34.345Z,6.67
2019-05-15T05:38:34.320Z,6.59
2019-05-15T05:39:34.310Z,6.69
2019-05-15T05:40:34.290Z,6.67
2019-05-15T05:41:34.311Z,6.69
2019-05-15T05:42:34.295Z,6.67
2019-05-15T05:43:34.270Z,6.67
2019-05-15T05:44:34.247Z,6.62
2019-05-15T05:45:34.236Z,6.64
2019-05-15T05:46:34.231Z,6.66
2019-05-15T05:47:34.279Z,6.66
2019-05-15T05:48:34.205Z,6.63
2019-05-15T05:49:34.231Z,6.70
2019-05-15T05:50:34.181Z,6.59
2019-05-15T05:51:34.171Z,6.69
2019-05-15T05:52:34.176Z,6.74
2019-05-15T05:53:34.155Z,6.70
2019-05-15T05:54:34.140Z,6.74
2019-05-15T05:55:34.127Z,6.78
2019-05-15T05:56:34.170Z,6.82
2019-05-15T05:57:34.109Z,6.75
2019-05-15T05:58:34.100Z,6.84
2019-05-15T05:59:34.157Z,6.81
2019-05-15T06:00:34.075Z,6.82
2019-05-15T06:01:36.994Z,6.85
2019-05-15T06:02:44.787Z,6.81
2019-05-15T06:03:35.046Z,6.97
2019-05-15T06:04:34.038Z,6.96
2019-05-15T06:05:34.032Z,6.97
2019-05-15T06:06:34.012Z,6.96
2019-05-15T06:07:35.477Z,6.99
2019-05-15T06:08:33.994Z,7.02
2019-05-15T06:09:33.979Z,7.07
2019-05-15T06:10:33.970Z,7.13
2019-05-15T06:11:33.966Z,7.07
2019-05-15T06:12:33.953Z,7.13
2019-05-15T06:13:33.932Z,7.17
2019-05-15T06:14:33.926Z,7.17
2019-05-15T06:15:33.929Z,7.21
2019-05-15T06:16:33.909Z,7.25
2019-05-15T06:17:33.923Z,7.24
2019-05-15T06:18:33.942Z,7.29
2019-05-15T06:19:33.866Z,7.33
2019-05-15T06:20:33.854Z,7.43
2019-05-15T06:21:33.883Z,7.40
2019-05-15T06:22:33.837Z,7.48
2019-05-15T06:23:35.837Z,7.51
2019-05-15T06:24:33.811Z,7.53
2019-05-15T06:25:33.820Z,7.61
2019-05-15T06:26:33.791Z,7.57
2019-05-15T06:27:33.788Z,7.61
2019-05-15T06:28:33.797Z,7.66
2019-05-15T06:29:33.759Z,7.67
2019-05-15T06:30:33.747Z,7.67
2019-05-15T06:31:33.743Z,7.69
2019-05-15T06:32:33.728Z,7.76
2019-05-15T06:33:33.726Z,7.77
2019-05-15T06:34:33.724Z,7.76
2019-05-15T06:35:33.722Z,7.72
2019-05-15T06:36:33.679Z,7.79
2019-05-15T06:37:33.669Z,7.80
2019-05-15T06:38:33.711Z,7.87
2019-05-15T06:39:33.669Z,7.77
2019-05-15T06:40:33.642Z,7.87
2019-05-15T06:41:34.080Z,7.90
2019-05-15T06:42:33.623Z,7.93
2019-05-15T06:43:33.606Z,7.87
2019-05-15T06:44:33.600Z,8.00
2019-05-15T06:45:33.586Z,8.00
2019-05-15T06:46:33.593Z,7.98
2019-05-15T06:47:33.561Z,8.08
2019-05-15T06:48:33.560Z,8.12
2019-05-15T06:49:33.539Z,8.10
2019-05-15T06:50:33.542Z,8.15
2019-05-15T06:51:33.523Z,8.15
2019-05-15T06:52:33.531Z,8.15
2019-05-15T06:53:33.589Z,8.24
2019-05-15T06:54:33.546Z,8.26
2019-05-15T06:55:33.503Z,8.28
2019-05-15T06:56:33.485Z,8.31
2019-05-15T06:57:33.452Z,8.30
2019-05-15T06:58:33.459Z,8.34
2019-05-15T06:59:33.429Z,8.30
2019-05-15T07:00:33.421Z,8.34
2019-05-15T07:01:33.407Z,8.30
2019-05-15T07:02:33.430Z,8.23
2019-05-15T07:03:33.400Z,8.24
2019-05-15T07:04:33.375Z,8.30
2019-05-15T07:05:33.374Z,8.34
2019-05-15T07:06:33.354Z,8.31
2019-05-15T07:07:33.341Z,8.26
2019-05-15T07:08:33.346Z,8.19
2019-05-15T07:09:33.326Z,8.27
2019-05-15T07:10:33.330Z,8.26
2019-05-15T07:11:33.302Z,8.27
2019-05-15T07:12:33.288Z,8.28
2019-05-15T07:13:33.300Z,8.38
2019-05-15T07:14:33.280Z,8.34
2019-05-15T07:15:33.299Z,8.30
2019-05-15T07:16:33.243Z,8.42
2019-05-15T07:17:33.238Z,8.44
2019-05-15T07:18:33.235Z,8.34
2019-05-15T07:19:33.215Z,8.42
2019-05-15T07:20:33.205Z,8.34
2019-05-15T07:21:33.203Z,8.45
2019-05-15T07:22:33.188Z,8.48
2019-05-15T07:23:33.179Z,8.52
2019-05-15T07:24:33.165Z,8.48
2019-05-15T07:25:33.150Z,8.53
2019-05-15T07:26:33.144Z,8.44
2019-05-15T07:27:33.123Z,8.60
2019-05-15T07:28:33.159Z,8.60
2019-05-15T07:29:33.136Z,8.64
2019-05-15T07:30:33.093Z,8.55
2019-05-15T07:31:33.088Z,8.70
2019-05-15T07:32:33.074Z,8.67
2019-05-15T07:33:39.371Z,8.66
2019-05-15T07:34:34.051Z,8.76
2019-05-15T07:35:33.037Z,8.76
2019-05-15T07:36:33.027Z,8.74
2019-05-15T07:37:33.017Z,8.78
2019-05-15T07:38:33.006Z,8.87
2019-05-15T07:39:33.000Z,8.94
2019-05-15T07:40:32.987Z,8.94
2019-05-15T07:41:32.975Z,9.00
2019-05-15T07:42:32.960Z,8.97
2019-05-15T07:43:32.950Z,9.08
2019-05-15T07:44:32.956Z,9.13
2019-05-15T07:45:32.941Z,9.21
2019-05-15T07:46:32.931Z,9.19
2019-05-15T07:47:32.911Z,9.25
2019-05-15T07:48:32.896Z,9.25
2019-05-15T07:49:32.900Z,9.29
2019-05-15T07:50:32.891Z,9.29
2019-05-15T07:51:32.870Z,9.40
2019-05-15T07:52:32.863Z,9.37
2019-05-15T07:53:32.846Z,9.32
2019-05-15T07:54:32.858Z,9.32
2019-05-15T07:55:32.826Z,9.44
2019-05-15T07:56:32.823Z,9.43
2019-05-15T07:57:32.810Z,9.50
2019-05-15T07:58:32.807Z,9.54
2019-05-15T07:59:32.791Z,9.58
2019-05-15T08:00:33.134Z,9.73
2019-05-15T08:01:32.764Z,9.84
2019-05-15T08:02:32.767Z,9.82
2019-05-15T08:03:32.743Z,9.92
2019-05-15T08:04:33.146Z,9.99
2019-05-15T08:05:32.723Z,9.95
2019-05-15T08:06:32.711Z,10.09
2019-05-15T08:07:32.699Z,10.05
2019-05-15T08:08:32.694Z,10.13
2019-05-15T08:09:32.712Z,10.26
2019-05-15T08:10:32.667Z,10.33
2019-05-15T08:11:32.650Z,10.40
2019-05-15T08:12:32.664Z,10.44
2019-05-15T08:13:32.637Z,10.53
2019-05-15T08:14:32.642Z,10.63
2019-05-15T08:15:32.607Z,10.67
2019-05-15T08:16:32.596Z,10.71
2019-05-15T08:17:32.584Z,10.78
2019-05-15T08:18:32.608Z,10.79
2019-05-15T08:19:33.942Z,10.82
2019-05-15T08:20:32.576Z,10.93
2019-05-15T08:21:32.590Z,10.96
2019-05-15T08:22:32.607Z,11.02
2019-05-15T08:23:32.524Z,11.05
2019-05-15T08:24:32.518Z,11.07
2019-05-15T08:25:35.436Z,11.19
2019-05-15T08:26:32.494Z,11.18
2019-05-15T08:27:32.475Z,11.19
2019-05-15T08:28:32.464Z,11.30
2019-05-15T08:29:32.478Z,11.36
2019-05-15T08:30:32.441Z,11.29
2019-05-15T08:31:32.437Z,11.40
2019-05-15T08:32:32.422Z,11.43
2019-05-15T08:33:32.423Z,11.41
2019-05-15T08:34:32.428Z,11.43
2019-05-15T08:35:32.393Z,11.44
2019-05-15T08:36:32.380Z,11.36
2019-05-15T08:37:32.388Z,11.40
2019-05-15T08:38:32.362Z,11.29
2019-05-15T08:39:32.353Z,11.40
2019-05-15T08:40:32.334Z,11.17
2019-05-15T08:41:32.327Z,11.27
2019-05-15T08:42:32.460Z,11.26
2019-05-15T08:43:32.298Z,11.19
2019-05-15T08:44:32.295Z,11.22
2019-05-15T08:45:32.325Z,11.26
2019-05-15T08:46:32.345Z,11.35
2019-05-15T08:47:32.254Z,11.36
2019-05-15T08:48:32.970Z,11.32
2019-05-15T08:49:32.237Z,11.35
2019-05-15T08:50:32.280Z,11.36
2019-05-15T08:51:32.274Z,11.40
2019-05-15T08:52:32.270Z,11.23
2019-05-15T08:53:32.334Z,11.30
2019-05-15T08:54:32.197Z,11.41
2019-05-15T08:55:32.204Z,11.37
2019-05-15T08:56:32.212Z,11.32
2019-05-15T08:57:32.363Z,11.30
2019-05-15T08:58:32.130Z,11.27
2019-05-15T08:59:32.139Z,11.27
2019-05-15T09:00:32.193Z,11.23
2019-05-15T09:01:32.150Z,11.22
2019-05-15T09:02:32.247Z,11.25
2019-05-15T09:03:32.155Z,11.18
2019-05-15T09:04:35.024Z,11.14
2019-05-15T09:05:32.064Z,11.22
2019-05-15T09:06:32.320Z,11.23
2019-05-15T09:07:32.031Z,11.22
2019-05-15T09:08:32.092Z,11.18
2019-05-15T09:09:32.112Z,11.26
2019-05-15T09:10:32.220Z,11.27
2019-05-15T09:11:32.049Z,11.35
2019-05-15T09:12:32.039Z,11.37
2019-05-15T09:13:31.973Z,11.37
2019-05-15T09:14:31.952Z,11.26
2019-05-15T09:15:32.015Z,11.29
2019-05-15T09:16:31.963Z,11.27
2019-05-15T09:17:31.988Z,11.30
2019-05-15T09:18:32.034Z,11.43
2019-05-15T09:19:31.962Z,11.29
2019-05-15T09:20:31.897Z,11.27
2019-05-15T09:21:31.898Z,11.33
2019-05-15T09:22:31.879Z,11.29
2019-05-15T09:23:31.908Z,11.30
2019-05-15T09:24:31.843Z,11.27
2019-05-15T09:25:31.838Z,11.33
2019-05-15T09:26:35.286Z,11.30
2019-05-15T09:27:31.815Z,11.27
2019-05-15T09:28:31.832Z,11.25
2019-05-15T09:29:31.885Z,11.30
2019-05-15T09:30:31.774Z,11.29
2019-05-15T09:31:31.775Z,11.43
2019-05-15T09:32:31.757Z,11.37
2019-05-15T09:33:31.751Z,11.32
2019-05-15T09:34:46.661Z,11.30
2019-05-15T09:35:32.720Z,11.36
2019-05-15T09:36:31.731Z,11.40
2019-05-15T09:37:33.635Z,11.36
2019-05-15T09:38:31.709Z,11.45
2019-05-15T09:39:31.677Z,11.30
2019-05-15T09:40:42.266Z,11.43
2019-05-15T09:41:32.654Z,11.33
2019-05-15T09:42:31.643Z,11.43
2019-05-15T09:43:31.629Z,11.29
2019-05-15T09:44:31.620Z,11.41
2019-05-15T09:45:31.615Z,11.41
2019-05-15T09:46:31.615Z,11.35
2019-05-15T09:47:31.593Z,11.33
2019-05-15T09:48:31.579Z,11.32
2019-05-15T09:49:31.568Z,11.36
2019-05-15T09:50:31.567Z,11.43
2019-05-15T09:51:31.578Z,11.40
2019-05-15T09:52:31.527Z,11.37
2019-05-15T09:53:31.534Z,11.36
2019-05-15T09:54:31.510Z,11.47
2019-05-15T09:55:31.500Z,11.48
2019-05-15T09:56:31.578Z,11.50
2019-05-15T09:57:31.487Z,11.48
2019-05-15T09:58:31.481Z,11.52
2019-05-15T09:59:31.470Z,11.57
2019-05-15T10:00:31.444Z,11.52
2019-05-15T10:01:31.443Z,11.60
2019-05-15T10:02:31.421Z,11.66
2019-05-15T10:03:31.411Z,11.69
2019-05-15T10:04:31.448Z,11.72
2019-05-15T10:05:31.381Z,11.78
2019-05-15T10:06:31.391Z,11.87
2019-05-15T10:07:31.361Z,11.87
2019-05-15T10:08:31.364Z,11.90
2019-05-15T10:09:31.363Z,11.94
2019-05-15T10:10:31.342Z,12.02
2019-05-15T10:11:31.325Z,12.04
2019-05-15T10:12:34.860Z,12.12
2019-05-15T10:13:31.310Z,12.18
2019-05-15T10:14:31.285Z,12.12
2019-05-15T10:15:31.283Z,12.15
2019-05-15T10:16:31.270Z,12.17
2019-05-15T10:17:31.256Z,12.28
2019-05-15T10:18:31.237Z,12.35
2019-05-15T10:19:31.228Z,12.35
2019-05-15T10:20:31.261Z,12.35
2019-05-15T10:21:32.512Z,12.35
2019-05-15T10:22:31.194Z,12.40
2019-05-15T10:23:31.193Z,12.58
2019-05-15T10:24:31.173Z,12.60
2019-05-15T10:25:31.166Z,12.70
2019-05-15T10:26:31.159Z,12.79
2019-05-15T10:27:31.210Z,12.86
2019-05-15T10:28:31.135Z,12.95
2019-05-15T10:29:31.119Z,12.95
2019-05-15T10:30:31.107Z,13.01
2019-05-15T10:31:31.107Z,12.98
2019-05-15T10:32:31.162Z,12.98
2019-05-15T10:33:31.073Z,13.05
2019-05-15T10:34:31.081Z,12.91
2019-05-15T10:35:31.833Z,12.95
2019-05-15T10:36:31.044Z,12.91
2019-05-15T10:37:31.040Z,12.91
2019-05-15T10:38:31.070Z,12.87
2019-05-15T10:39:31.010Z,12.75
2019-05-15T10:40:31.001Z,12.68
2019-05-15T10:41:30.991Z,12.64
2019-05-15T10:42:30.996Z,12.60
2019-05-15T10:43:30.978Z,12.46
2019-05-15T10:44:30.986Z,12.45
2019-05-15T10:45:30.950Z,12.49
2019-05-15T10:46:30.943Z,12.43
2019-05-15T10:47:30.954Z,12.40
2019-05-15T10:48:30.931Z,12.50
2019-05-15T10:49:30.909Z,12.47
2019-05-15T10:50:30.894Z,12.45
2019-05-15T10:51:30.878Z,12.55
2019-05-15T10:52:30.888Z,12.54
2019-05-15T10:53:30.872Z,12.58
2019-05-15T10:54:30.849Z,12.64
2019-05-15T10:55:30.852Z,12.62
2019-05-15T10:56:30.823Z,12.72
2019-05-15T10:57:30.825Z,12.73
2019-05-15T10:58:30.804Z,12.83
2019-05-15T10:59:30.792Z,12.98
2019-05-15T11:00:30.783Z,13.01
2019-05-15T11:01:30.775Z,13.12
2019-05-15T11:02:30.763Z,13.16
2019-05-15T11:03:34.610Z,13.27
2019-05-15T11:04:30.738Z,13.38
2019-05-15T11:05:40.518Z,13.46
2019-05-15T11:06:31.735Z,13.53
2019-05-15T11:07:30.724Z,13.52
2019-05-15T11:08:30.694Z,13.59
2019-05-15T11:09:30.686Z,13.53
2019-05-15T11:10:30.692Z,13.63
2019-05-15T11:11:30.667Z,13.72
2019-05-15T11:12:30.702Z,13.70
2019-05-15T11:13:30.652Z,13.68
2019-05-15T11:14:30.631Z,13.65
2019-05-15T11:15:30.616Z,13.79
2019-05-15T11:16:30.644Z,13.65
2019-05-15T11:17:31.581Z,13.78
2019-05-15T11:18:30.922Z,13.60
2019-05-15T11:19:35.965Z,13.65
2019-05-15T11:20:31.593Z,13.68
2019-05-15T11:21:30.553Z,13.71
2019-05-15T11:22:30.554Z,13.74
2019-05-15T11:23:30.533Z,13.77
2019-05-15T11:24:32.387Z,13.68
2019-05-15T11:25:30.523Z,13.74
2019-05-15T11:26:33.637Z,13.70
2019-05-15T11:27:31.443Z,13.74
2019-05-15T11:28:32.293Z,13.71
2019-05-15T11:29:30.465Z,13.83
2019-05-15T11:30:30.467Z,13.92
2019-05-15T11:31:30.463Z,14.15
2019-05-15T11:32:30.469Z,14.26
2019-05-15T11:33:30.429Z,14.20
2019-05-15T11:34:30.408Z,14.28
2019-05-15T11:35:30.403Z,14.25
2019-05-15T11:36:30.424Z,14.30
2019-05-15T11:37:30.379Z,14.33
2019-05-15T11:38:30.369Z,14.51
2019-05-15T11:39:30.392Z,14.51
2019-05-15T11:40:30.342Z,14.59
2019-05-15T11:41:30.338Z,14.54
2019-05-15T11:42:30.328Z,14.55
2019-05-15T11:43:30.314Z,14.60
2019-05-15T11:44:30.314Z,14.51
2019-05-15T11:45:30.286Z,14.51
2019-05-15T11:46:30.294Z,14.36
2019-05-15T11:47:30.271Z,14.41
2019-05-15T11:48:30.273Z,14.32
2019-05-15T11:49:30.242Z,14.26
2019-05-15T11:50:30.240Z,14.15
2019-05-15T11:51:30.222Z,14.17
2019-05-15T11:52:30.219Z,13.93
2019-05-15T11:53:30.218Z,13.95
2019-05-15T11:54:30.193Z,13.85
2019-05-15T11:55:30.179Z,13.85
2019-05-15T11:56:30.167Z,13.77
2019-05-15T11:57:42.347Z,13.79
2019-05-15T11:58:31.165Z,13.78
2019-05-15T11:59:30.298Z,13.71
2019-05-15T12:00:30.469Z,13.74
2019-05-15T12:01:30.114Z,13.70
2019-05-15T12:02:30.103Z,13.68
2019-05-15T12:03:30.127Z,13.67
2019-05-15T12:04:34.060Z,13.54
2019-05-15T12:05:30.084Z,13.57
2019-05-15T12:06:30.091Z,13.49
2019-05-15T12:07:30.047Z,13.47
2019-05-15T12:08:30.041Z,13.50
2019-05-15T12:09:30.025Z,13.47
2019-05-15T12:10:30.015Z,13.44
2019-05-15T12:11:36.764Z,13.35
2019-05-15T12:12:32.055Z,13.30
2019-05-15T12:13:29.991Z,13.30
2019-05-15T12:14:29.970Z,13.33
2019-05-15T12:15:29.960Z,13.20
2019-05-15T12:16:29.955Z,13.12
2019-05-15T12:17:29.975Z,13.12
2019-05-15T12:18:29.937Z,13.09
2019-05-15T12:19:29.916Z,13.04
2019-05-15T12:20:29.907Z,13.04
2019-05-15T12:21:29.905Z,12.93
2019-05-15T12:22:29.922Z,12.93
2019-05-15T12:23:29.893Z,12.91
2019-05-15T12:24:35.934Z,12.91
2019-05-15T12:25:31.884Z,12.78
2019-05-15T12:26:29.840Z,12.79
2019-05-15T12:27:29.848Z,12.78
2019-05-15T12:28:29.980Z,12.76
2019-05-15T12:29:29.849Z,12.72
2019-05-15T12:30:29.818Z,12.76
2019-05-15T12:31:29.785Z,12.72
2019-05-15T12:33:30.774Z,12.60
2019-05-15T12:34:29.758Z,12.60
2019-05-15T12:35:29.783Z,12.62
2019-05-15T12:36:50.803Z,12.73
2019-05-15T12:37:30.731Z,12.57
2019-05-15T12:38:29.735Z,12.62
2019-05-15T12:39:30.614Z,12.57
2019-05-15T13:00:30.466Z,12.25
2019-05-15T13:01:29.651Z,12.25
2019-05-15T13:02:29.445Z,12.24
2019-05-15T13:03:29.434Z,12.20
2019-05-15T13:04:29.430Z,12.21
2019-05-15T13:05:32.364Z,12.12
2019-05-15T13:06:29.432Z,12.03
2019-05-15T13:07:29.391Z,12.03
2019-05-15T13:08:29.380Z,12.00
2019-05-15T13:09:29.378Z,11.99
2019-05-15T13:10:29.362Z,11.91
2019-05-15T13:11:29.352Z,11.94
2019-05-15T13:12:29.336Z,11.90
2019-05-15T13:13:29.325Z,12.00
2019-05-15T13:14:29.318Z,12.00
2019-05-15T13:15:29.312Z,11.91
2019-05-15T13:16:29.294Z,12.02
2019-05-15T13:17:29.306Z,11.88
2019-05-15T13:18:29.280Z,11.90
2019-05-15T13:19:29.267Z,11.84
2019-05-15T13:20:29.255Z,11.83
2019-05-15T13:21:29.729Z,11.83
2019-05-15T13:22:29.227Z,11.84
2019-05-15T13:23:29.217Z,11.80
2019-05-15T13:24:29.207Z,11.78
2019-05-15T13:25:29.210Z,11.78
2019-05-15T13:26:29.331Z,11.75
2019-05-15T13:27:29.172Z,11.75
2019-05-15T13:28:29.412Z,11.73
2019-05-15T13:29:29.208Z,11.80